Lynden, WA (98264)

10:09 AM PDT on September 20, 2014 (GMT -0700)
KWALYNDE1 | Change Station
CLOSE
Current Station
Personal Weather Station
Location: Lynden, WA
Elevation: 58 ft
Nearby Weather Stations

Elev 58 ft 48.95 °N, 122.48 °W | Updated 20 seconds ago

Clear
Clear
62.8 °F
Feels Like 62.8 °F
N
2.0
Wind Variable Wind from NNE
Gusts 4.0 mph

Today
High -- | Low -- °F
--% Chance of Precip.
Yesterday
High -- | Low -- °F
Precip. -- in
6:53 AM 7:11 PM
Waning Crescent, 11% visible
Pressure 30.14 in
Visibility 10.0 miles
Clouds Clear
Dew Point 63 °F
Humidity 100%
Rainfall -999.00 in
Snow Depth 0 in , 0 in , 0 in
UV 3 out of 12
Pollen 1.30 out of 12
PM2.5 Good
Flu Activity Not available.
METAR KBLI 201653Z 36007KT 10SM CLR 17/13 A3012 RMK AO2 SLP207 T01670128

More Conditions Fewer Conditions

Pressure 30.14 in
Visibility 10.0 miles
Clouds Clear
Dew Point 63 °F
Humidity 100%
Rainfall -999.00 in
Snow Depth 0 in , 0 in , 0 in
UV 3 out of 12
Pollen 1.30 out of 12
PM2.5 Good
Flu Activity Not available.
METAR KBLI 201653Z 36007KT 10SM CLR 17/13 A3012 RMK AO2 SLP207 T01670128

More Conditions Fewer Conditions

10-Day Weather Forecast

Almanac

Astronomy

Sep. 20, 2014 Rise Set
Actual Time 6:53 AM PDT 7:11 PM PDT
Civil Twilight 6:22 AM PDT 7:43 PM PDT
Nautical Twilight 5:44 AM PDT 8:20 PM PDT
Astronomical Twilight 5:05 AM PDT 8:59 PM PDT
Moon 3:24 AM PDT 5:29 PM PDT
Length of Visible Light 13h 21m
Length of Day
12h 18m
Tomorrow will be 3m 34s shorter.
Waning Crescent, 11% of the Moon is Illuminated
Today
Waning Crescent
Sep 24
New
Oct 1
First Quarter
Oct 8
Full
Oct 15
Last Quarter

Today's Extremes

State Highs State Lows

Community

WunderPhotos

Upload Photos

1,754,906 photos uploaded!

Nearby

Air Quality

  Air Quality AQ Index Pollutant
Yesterday Good
PM2.5
Yesterday Good
OZONE
Current Good
PM2.5
Saturday Good
OZONE
Saturday Good
PM2.5
Sunday Good
OZONE
Sunday Good
PM2.5
Monday Good
OZONE
Monday Good
PM2.5

Snow Depth

Station Depth Elevation
Lyman Lake 0 in 5900 ft
June Lake 0 in 3340 ft
Touchet 0 in 5530 ft
Olallie Meadows 3 in 3700 ft
Stampede Pass 0 in 3860 ft

Earthquake Activity

City Distance Mag. Time & Date
Seabeck, Washington 98 miles 4.0 3:06 AM PDT
2014-09-17
Minimum magnitude displayed is 2.5.

Coastal Water Temperatures

Place Temperature
Port Townsend, WA 53.1 °F
Friday Harbor, WA 52.0 °F
Port Angeles, WA 52.0 °F

Nearby Weather Stations